Time;durP1;ratioP1;P1;durP2;ratioP2;P2;SDS_P1;SDS_P2;PMS_P1;PMS_P2;Temp;Humidity;BMP_temperature;BMP_pressure;BME280_temperature;BME280_humidity;BME280_pressure;Samples;Min_cycle;Max_cycle;Signal;HPM_P1;HPM_P2
2022/06/03 00:00:53;;;;;;;10.48;5.50;;;10.60;99.90;;;;;;5089280;28;20366;-86
2022/06/03 00:03:39;;;;;;;7.88;5.32;;;10.70;99.90;;;;;;5088640;28;20372;-86
2022/06/03 00:06:27;;;;;;;7.57;6.10;;;10.80;99.90;;;;;;5089024;28;20376;-85
2022/06/03 00:09:15;;;;;;;6.60;4.93;;;10.90;99.90;;;;;;5089028;28;20717;-86
2022/06/03 00:12:10;;;;;;;6.65;5.20;;;10.90;99.90;;;;;;5088880;28;20498;-85
2022/06/03 00:15:10;;;;;;;6.68;5.13;;;10.80;99.90;;;;;;5088357;28;20407;-85
2022/06/03 00:17:48;;;;;;;9.25;5.10;;;11.00;99.90;;;;;;5088989;28;20361;-84
2022/06/03 00:20:25;;;;;;;7.35;5.00;;;11.10;99.90;;;;;;5089203;28;20368;-86
2022/06/03 00:23:13;;;;;;;6.97;5.00;;;10.90;99.90;;;;;;5089440;28;20746;-87
2022/06/03 00:26:12;;;;;;;7.43;5.50;;;11.00;99.90;;;;;;5088983;28;20361;-88
2022/06/03 00:29:09;;;;;;;7.72;5.43;;;11.00;99.90;;;;;;4987452;28;20396;-86
2022/06/03 00:32:08;;;;;;;7.43;5.60;;;11.20;99.90;;;;;;4986980;28;20737;-86
2022/06/03 00:35:01;;;;;;;7.93;5.70;;;10.90;99.90;;;;;;4990375;28;20470;-87
2022/06/03 00:37:28;;;;;;;6.57;5.22;;;11.00;99.90;;;;;;5003013;28;20410;-87
2022/06/03 00:40:14;;;;;;;7.72;5.78;;;11.10;99.90;;;;;;4990291;28;20434;-86
2022/06/03 00:43:07;;;;;;;7.22;5.43;;;11.10;99.90;;;;;;5006744;28;20906;-86
2022/06/03 00:45:40;;;;;;;7.68;5.20;;;11.10;99.90;;;;;;5006962;28;20461;-86
2022/06/03 00:48:17;;;;;;;9.38;5.88;;;11.30;99.90;;;;;;5006381;28;20390;-85
2022/06/03 00:50:56;;;;;;;7.40;5.68;;;11.30;99.90;;;;;;5006636;28;20379;-86
2022/06/03 00:53:40;;;;;;;6.20;5.57;;;11.30;99.90;;;;;;5006748;28;20818;-86
2022/06/03 00:56:13;;;;;;;8.60;6.20;;;11.30;99.90;;;;;;5006966;28;20453;-87
2022/06/03 00:59:02;;;;;;;8.20;5.63;;;11.50;99.90;;;;;;5008907;28;20399;-87
2022/06/03 01:01:33;;;;;;;6.15;5.07;;;11.60;99.90;;;;;;5006989;28;20839;-87
2022/06/03 01:04:14;;;;;;;8.23;5.68;;;11.90;99.90;;;;;;5010100;28;20733;-87
2022/06/03 01:06:57;;;;;;;7.77;5.50;;;11.90;99.90;;;;;;5092349;28;20406;-87
2022/06/03 01:09:57;;;;;;;8.27;5.47;;;11.60;99.90;;;;;;5091884;28;20488;-87
2022/06/03 01:12:42;;;;;;;7.85;5.97;;;11.70;99.90;;;;;;5091966;28;20365;-87
2022/06/03 01:15:24;;;;;;;9.93;5.73;;;11.90;99.90;;;;;;5096793;28;20376;-87
2022/06/03 01:18:13;;;;;;;9.32;5.43;;;11.90;99.90;;;;;;5092248;28;20392;-87
2022/06/03 01:20:56;;;;;;;10.38;5.85;;;12.20;99.90;;;;;;5092158;28;20365;-87
2022/06/03 01:23:37;;;;;;;9.25;5.78;;;12.20;99.90;;;;;;5090900;28;20364;-87
2022/06/03 01:26:35;;;;;;;7.45;5.20;;;12.20;99.90;;;;;;5092135;28;20360;-86
2022/06/03 01:29:33;;;;;;;8.77;5.10;;;12.30;99.90;;;;;;5091876;28;20470;-86
2022/06/03 01:32:31;;;;;;;5.55;4.85;;;12.50;99.90;;;;;;5090410;28;20372;-87
2022/06/03 01:35:09;;;;;;;7.15;5.10;;;12.60;99.90;;;;;;5089972;28;20420;-87
2022/06/03 01:37:46;;;;;;;5.63;4.50;;;12.80;99.90;;;;;;5090090;28;20441;-87
2022/06/03 01:40:39;;;;;;;5.25;4.55;;;12.80;99.90;;;;;;5090098;28;20380;-87
2022/06/03 01:43:17;;;;;;;7.03;4.53;;;12.90;99.90;;;;;;5091390;28;20855;-90
2022/06/03 01:46:10;;;;;;;6.53;4.05;;;13.10;99.90;;;;;;5091822;28;20368;-91
2022/06/03 01:48:55;;;;;;;6.30;4.27;;;13.20;99.90;;;;;;5009244;28;20845;-85
2022/06/03 01:51:40;;;;;;;4.07;3.00;;;13.10;99.90;;;;;;5009472;28;20759;-86
2022/06/03 01:54:47;;;;;;;3.83;2.85;;;12.90;99.90;;;;;;4992831;28;20466;-85
2022/06/03 01:57:41;;;;;;;4.63;2.42;;;13.10;99.90;;;;;;5009339;28;20373;-85
2022/06/03 02:00:32;;;;;;;3.78;2.40;;;13.30;99.90;;;;;;5009386;28;20422;-85
2022/06/03 02:03:14;;;;;;;4.03;1.58;;;13.30;99.90;;;;;;5008760;28;20375;-86
2022/06/03 02:06:17;;;;;;;2.92;1.55;;;13.20;99.90;;;;;;5008990;28;20402;-85
2022/06/03 02:08:47;;;;;;;3.08;1.60;;;13.30;99.90;;;;;;5009184;28;20390;-85
2022/06/03 02:11:28;;;;;;;2.22;1.40;;;13.40;99.90;;;;;;4992733;28;20881;-85
2022/06/03 02:13:58;;;;;;;2.50;1.48;;;13.60;99.90;;;;;;5008334;28;20375;-85
2022/06/03 02:17:02;;;;;;;2.03;1.30;;;13.70;99.90;;;;;;5008782;28;20387;-85
2022/06/03 02:19:30;;;;;;;3.73;1.47;;;13.70;99.90;;;;;;4992462;28;20387;-84
2022/06/03 02:22:29;;;;;;;2.72;1.40;;;13.50;99.90;;;;;;5008553;28;20453;-86
2022/06/03 02:25:26;;;;;;;2.03;1.50;;;13.50;99.90;;;;;;5033555;28;20365;-86
2022/06/03 02:28:11;;;;;;;2.87;1.43;;;13.40;99.90;;;;;;5090471;28;20365;-85
2022/06/03 02:31:24;;;;;;;2.28;1.70;;;13.50;99.90;;;;;;5089016;28;20451;-86
2022/06/03 02:34:41;;;;;;;1.88;1.25;;;13.80;99.90;;;;;;5090237;28;20368;-87
2022/06/03 02:37:43;;;;;;;2.40;1.50;;;13.70;99.90;;;;;;5086590;28;20388;-86
2022/06/03 02:40:35;;;;;;;2.60;1.40;;;13.90;99.90;;;;;;5008450;28;20510;-87
2022/06/03 02:43:46;;;;;;;3.30;1.50;;;13.80;99.90;;;;;;5008887;28;20410;-85
2022/06/03 02:46:25;;;;;;;2.57;1.50;;;14.20;99.90;;;;;;4931054;29;20382;-86
2022/06/03 02:49:23;;;;;;;6.10;1.63;;;14.70;99.90;;;;;;4931287;29;20390;-84
2022/06/03 02:52:10;;;;;;;3.13;1.67;;;15.10;99.90;;;;;;4930758;29;20397;-85
2022/06/03 02:55:11;;;;;;;4.50;1.80;;;15.10;99.90;;;;;;4930969;29;20453;-85
2022/06/03 02:58:03;;;;;;;3.47;1.77;;;15.10;99.90;;;;;;4855596;29;20455;-85
2022/06/03 03:00:39;;;;;;;2.40;1.40;;;15.00;99.90;;;;;;4855450;29;20508;-85
2022/06/03 03:03:43;;;;;;;2.40;1.30;;;14.80;99.90;;;;;;4855836;29;20380;-86
2022/06/03 03:06:22;;;;;;;2.45;1.40;;;14.70;99.90;;;;;;4856128;29;20393;-87
2022/06/03 03:09:22;;;;;;;3.70;1.48;;;14.60;99.90;;;;;;4855992;29;20429;-86
2022/06/03 03:12:07;;;;;;;4.15;1.60;;;14.60;99.90;;;;;;4855342;29;20945;-86
2022/06/03 03:14:43;;;;;;;4.03;2.45;;;14.60;99.90;;;;;;4855796;29;20928;-85
2022/06/03 03:17:21;;;;;;;4.90;1.40;;;14.60;99.90;;;;;;4908114;29;20873;-86
2022/06/03 03:20:19;;;;;;;2.33;1.50;;;14.50;99.90;;;;;;4949964;29;20387;-86
2022/06/03 03:23:16;;;;;;;1.90;1.20;;;14.10;99.90;;;;;;4988036;28;20384;-86
2022/06/03 03:26:04;;;;;;;3.42;1.38;;;13.90;99.90;;;;;;4990771;28;20507;-86
2022/06/03 03:29:05;;;;;;;2.45;1.50;;;13.80;99.90;;;;;;5007921;28;20470;-85
2022/06/03 03:31:50;;;;;;;2.47;1.60;;;13.80;99.90;;;;;;5007362;28;20387;-86
2022/06/03 03:34:38;;;;;;;2.20;1.60;;;13.80;99.90;;;;;;5017085;28;20468;-85
2022/06/03 03:37:20;;;;;;;2.30;1.60;;;13.90;99.90;;;;;;5089760;28;20458;-85
2022/06/03 03:40:19;;;;;;;5.22;1.85;;;13.70;99.90;;;;;;5089691;28;20360;-85
2022/06/03 03:43:21;;;;;;;3.20;1.60;;;13.70;99.90;;;;;;5088964;28;20400;-85
2022/06/03 03:46:00;;;;;;;4.43;1.80;;;13.80;99.90;;;;;;5089084;28;20356;-85
2022/06/03 03:48:39;;;;;;;2.30;1.75;;;13.70;99.90;;;;;;5088989;28;20388;-86
2022/06/03 03:51:33;;;;;;;3.20;1.80;;;13.80;99.90;;;;;;5088992;28;20381;-86
2022/06/03 03:54:21;;;;;;;2.65;2.17;;;13.90;99.90;;;;;;5089230;28;20388;-86
2022/06/03 03:57:09;;;;;;;4.10;2.42;;;13.80;99.90;;;;;;5089082;28;20380;-85
2022/06/03 03:59:36;;;;;;;3.00;2.20;;;13.80;99.90;;;;;;5088891;28;20721;-85
2022/06/03 04:02:35;;;;;;;3.95;2.63;;;13.70;99.90;;;;;;5088838;28;20360;-85
2022/06/03 04:05:17;;;;;;;4.72;2.55;;;13.60;99.90;;;;;;5088679;28;20480;-86
2022/06/03 04:08:05;;;;;;;3.70;2.28;;;13.40;99.90;;;;;;5088669;28;20387;-85
2022/06/03 04:10:50;;;;;;;3.97;2.22;;;13.30;99.90;;;;;;5088672;28;20538;-85
2022/06/03 04:13:23;;;;;;;3.83;2.20;;;13.40;99.90;;;;;;5089100;28;20365;-85
2022/06/03 04:15:56;;;;;;;4.00;2.10;;;13.40;99.90;;;;;;5089062;28;20357;-84
2022/06/03 04:18:41;;;;;;;3.40;2.10;;;13.50;99.90;;;;;;5089024;28;20372;-84
2022/06/03 04:21:40;;;;;;;3.55;2.40;;;13.50;99.90;;;;;;5089040;28;20368;-84
2022/06/03 04:24:38;;;;;;;4.53;2.38;;;13.60;99.90;;;;;;5088767;28;20353;-85
2022/06/03 04:27:27;;;;;;;2.90;1.50;;;13.60;99.90;;;;;;5070322;28;20884;-85
2022/06/03 04:30:08;;;;;;;3.50;1.88;;;13.60;99.90;;;;;;5088837;28;20499;-84
2022/06/03 04:33:06;;;;;;;4.40;1.85;;;13.60;99.90;;;;;;5088662;28;20388;-84
2022/06/03 04:35:33;;;;;;;4.28;1.85;;;13.60;99.90;;;;;;5088307;28;20388;-85
2022/06/03 04:38:33;;;;;;;3.00;1.58;;;13.60;99.90;;;;;;5090912;28;20379;-85
2022/06/03 04:41:13;;;;;;;4.68;1.70;;;13.60;99.90;;;;;;5093036;28;20396;-85
2022/06/03 04:43:52;;;;;;;4.20;1.42;;;13.60;99.90;;;;;;5093029;28;20375;-86
2022/06/03 04:46:28;;;;;;;4.05;1.80;;;13.60;99.90;;;;;;5092405;28;20827;-84
2022/06/03 04:49:13;;;;;;;3.75;1.75;;;13.60;99.90;;;;;;5074079;28;20906;-84
2022/06/03 04:52:17;;;;;;;2.38;1.63;;;13.70;99.90;;;;;;5092259;28;20766;-84
2022/06/03 04:54:59;;;;;;;2.80;1.75;;;13.60;99.90;;;;;;5092062;28;20368;-85
2022/06/03 04:58:12;;;;;;;4.85;2.10;;;13.50;99.90;;;;;;5092386;28;20357;-85
2022/06/03 05:00:49;;;;;;;6.75;2.00;;;13.40;99.90;;;;;;4990580;28;20404;-85
2022/06/03 05:03:51;;;;;;;15.18;2.28;;;13.40;99.90;;;;;;4991293;28;20873;-87
2022/06/03 05:07:09;;;;;;;5.40;1.70;;;13.40;99.90;;;;;;4984360;28;20408;-85
2022/06/03 05:09:39;;;;;;;5.15;1.50;;;13.50;99.90;;;;;;4933405;29;20466;-84
2022/06/03 05:12:39;;;;;;;3.73;1.40;;;13.50;99.90;;;;;;4936691;29;20457;-83
2022/06/03 05:15:24;;;;;;;4.13;1.30;;;13.50;99.90;;;;;;4933111;29;20454;-85
2022/06/03 05:18:07;;;;;;;5.57;1.50;;;13.60;99.90;;;;;;4933182;29;20469;-85
2022/06/03 05:20:58;;;;;;;4.17;1.30;;;13.60;99.90;;;;;;4932984;29;20464;-86
2022/06/03 05:23:46;;;;;;;5.00;1.40;;;13.70;99.90;;;;;;4916368;29;20394;-85
2022/06/03 05:26:56;;;;;;;2.58;1.40;;;13.60;99.90;;;;;;4932957;29;20441;-86
2022/06/03 05:29:50;;;;;;;2.97;1.38;;;13.60;99.90;;;;;;4931905;29;20429;-87
2022/06/03 05:32:44;;;;;;;5.78;1.70;;;13.60;99.90;;;;;;4932360;29;20893;-86
2022/06/03 05:35:23;;;;;;;2.35;1.60;;;13.60;99.90;;;;;;4931737;29;20421;-86
2022/06/03 05:37:55;;;;;;;3.22;1.75;;;13.60;99.90;;;;;;5024056;28;20396;-86
2022/06/03 05:40:37;;;;;;;4.68;1.50;;;13.50;99.90;;;;;;5029621;28;20424;-88
2022/06/03 05:43:13;;;;;;;3.00;1.40;;;13.50;99.90;;;;;;5029339;28;20408;-87
2022/06/03 05:46:22;;;;;;;1.23;1.00;;;13.50;99.90;;;;;;5080556;28;20787;-87
2022/06/03 05:49:28;;;;;;;1.63;1.15;;;13.50;99.90;;;;;;5077641;28;20404;-87
2022/06/03 05:51:58;;;;;;;1.98;1.17;;;13.50;99.90;;;;;;5091000;28;20355;-87
2022/06/03 05:54:41;;;;;;;3.78;1.30;;;13.40;99.90;;;;;;5072918;28;20383;-86
2022/06/03 05:57:35;;;;;;;2.38;1.50;;;13.40;99.90;;;;;;5091088;28;20396;-86
2022/06/03 06:00:26;;;;;;;2.47;1.10;;;13.30;99.90;;;;;;5072813;28;20907;-86
2022/06/03 06:03:11;;;;;;;4.33;1.20;;;13.30;99.90;;;;;;5091148;28;20470;-86
2022/06/03 06:05:38;;;;;;;3.67;1.33;;;13.30;99.90;;;;;;5074668;28;20391;-87
2022/06/03 06:08:26;;;;;;;3.08;1.27;;;13.30;99.90;;;;;;5091029;28;20379;-87
2022/06/03 06:11:26;;;;;;;2.40;1.20;;;13.20;99.90;;;;;;5091013;28;20391;-87
2022/06/03 06:14:06;;;;;;;4.35;1.35;;;13.20;99.90;;;;;;5091327;28;20365;-86
2022/06/03 06:16:47;;;;;;;3.55;1.30;;;13.20;99.90;;;;;;5088521;28;20786;-88
2022/06/03 06:19:36;;;;;;;4.57;3.05;;;13.30;99.90;;;;;;5090653;28;20364;-87
2022/06/03 06:22:25;;;;;;;3.63;2.80;;;13.20;99.90;;;;;;5090805;28;20876;-86
2022/06/03 06:25:04;;;;;;;2.88;1.90;;;13.20;99.90;;;;;;5090935;28;20375;-87
2022/06/03 06:27:57;;;;;;;2.70;1.30;;;13.10;99.90;;;;;;5091480;28;20449;-86
2022/06/03 06:30:50;;;;;;;4.82;1.70;;;13.00;99.90;;;;;;5090795;28;20404;-87
2022/06/03 06:33:51;;;;;;;2.30;1.60;;;12.90;99.90;;;;;;5090716;28;20440;-86
2022/06/03 06:36:48;;;;;;;3.08;1.25;;;12.70;99.90;;;;;;5090399;28;20396;-86
2022/06/03 06:39:18;;;;;;;2.80;1.50;;;12.60;99.90;;;;;;5090785;28;20837;-87
2022/06/03 06:42:02;;;;;;;4.10;1.60;;;12.50;99.90;;;;;;5090523;28;20388;-84
2022/06/03 06:45:05;;;;;;;2.03;1.00;;;12.40;99.90;;;;;;5090369;28;20725;-86
2022/06/03 06:47:36;;;;;;;3.00;1.00;;;12.30;99.90;;;;;;5090718;28;20398;-88
2022/06/03 06:50:41;;;;;;;2.55;0.90;;;12.20;99.90;;;;;;5090012;28;20730;-88
2022/06/03 06:53:31;;;;;;;4.10;1.13;;;12.10;99.90;;;;;;4988498;28;20947;-86
2022/06/03 06:56:28;;;;;;;2.10;0.90;;;12.10;99.90;;;;;;4988894;28;20836;-88
2022/06/03 06:59:01;;;;;;;1.77;1.00;;;12.00;99.90;;;;;;4988692;28;20409;-86
2022/06/03 07:01:33;;;;;;;1.67;1.00;;;12.00;99.90;;;;;;4988554;28;20911;-86
2022/06/03 07:04:13;;;;;;;1.30;0.88;;;12.00;99.90;;;;;;4971978;28;20734;-87
2022/06/03 07:06:46;;;;;;;3.47;1.10;;;11.90;99.90;;;;;;4988362;28;20405;-85
2022/06/03 07:09:25;;;;;;;2.35;1.20;;;11.90;99.90;;;;;;4988151;28;20404;-85
2022/06/03 07:12:03;;;;;;;2.30;1.23;;;11.90;99.90;;;;;;4971966;28;20468;-88
2022/06/03 07:14:35;;;;;;;1.73;1.15;;;11.80;99.90;;;;;;4988275;28;20397;-85
2022/06/03 07:20:32;;;;;;;9.25;6.05;;;11.80;99.90;;;;;;4988141;28;20361;-84
2022/06/03 07:23:11;;;;;;;6.07;4.83;;;11.80;99.90;;;;;;4988241;28;20377;-86
2022/06/03 07:25:47;;;;;;;2.17;1.30;;;11.70;99.90;;;;;;4988320;28;20954;-87
2022/06/03 07:28:32;;;;;;;2.93;1.60;;;11.70;99.90;;;;;;4987765;28;20392;-85
2022/06/03 07:31:21;;;;;;;2.75;1.73;;;11.70;99.90;;;;;;5070844;28;20381;-85
2022/06/03 07:34:20;;;;;;;2.63;1.35;;;11.60;99.90;;;;;;5089537;28;20374;-85
2022/06/03 07:37:23;;;;;;;1.73;1.40;;;11.60;99.90;;;;;;5069428;28;20386;-85
2022/06/03 07:40:07;;;;;;;3.13;1.17;;;11.60;99.90;;;;;;4987704;28;20377;-83
2022/06/03 07:42:58;;;;;;;1.92;1.33;;;11.60;99.90;;;;;;4988012;28;20385;-85
2022/06/03 07:45:35;;;;;;;2.90;1.17;;;11.50;99.90;;;;;;4911055;29;20737;-84
2022/06/03 07:48:10;;;;;;;3.05;1.20;;;11.60;99.90;;;;;;4910985;29;20383;-86
2022/06/03 07:50:57;;;;;;;2.70;1.15;;;11.60;99.90;;;;;;4910915;29;20502;-89
2022/06/03 07:53:39;;;;;;;2.30;1.10;;;11.70;99.90;;;;;;4911021;29;20852;-85
2022/06/03 07:56:06;;;;;;;1.90;1.05;;;11.70;99.90;;;;;;4910737;29;20478;-86
2022/06/03 07:58:38;;;;;;;2.30;1.00;;;11.70;99.90;;;;;;4911032;29;20384;-86
2022/06/03 08:01:27;;;;;;;1.90;1.17;;;11.60;99.90;;;;;;4910561;29;20390;-84
2022/06/03 08:03:54;;;;;;;2.25;1.20;;;11.60;99.90;;;;;;4910347;29;20391;-84
2022/06/03 08:12:13;;;;;;;1.83;1.00;;;11.70;99.90;;;;;;4911067;29;20468;-85
2022/06/03 08:14:42;;;;;;;1.52;0.80;;;11.70;99.90;;;;;;4910298;29;20789;-86
2022/06/03 08:17:10;;;;;;;2.50;1.10;;;11.60;99.90;;;;;;4982818;28;20394;-87
2022/06/03 08:19:40;;;;;;;1.45;0.90;;;11.60;99.90;;;;;;4970859;28;20927;-86
2022/06/03 08:22:12;;;;;;;1.55;1.10;;;11.60;99.90;;;;;;5001687;28;20410;-85
2022/06/03 08:24:48;;;;;;;2.53;1.05;;;11.50;99.90;;;;;;5050441;28;20383;-85
2022/06/03 08:27:24;;;;;;;1.67;1.00;;;11.50;99.90;;;;;;5068237;28;20381;-87
2022/06/03 08:30:01;;;;;;;2.92;1.00;;;11.50;99.90;;;;;;5068272;28;20402;-86
2022/06/03 08:32:57;;;;;;;1.65;0.80;;;11.50;99.90;;;;;;5060664;28;20388;-86
2022/06/03 08:35:29;;;;;;;1.20;0.97;;;11.50;99.90;;;;;;5078011;28;20898;-85
2022/06/03 08:38:11;;;;;;;1.43;0.93;;;11.40;99.90;;;;;;5089533;28;20379;-84
2022/06/03 08:40:54;;;;;;;1.65;1.10;;;11.40;99.90;;;;;;5091065;28;20388;-84
2022/06/03 08:43:33;;;;;;;1.90;1.00;;;11.50;99.90;;;;;;5090060;28;20746;-84
2022/06/03 08:46:17;;;;;;;1.45;0.93;;;11.50;99.90;;;;;;5075532;28;20364;-85
2022/06/03 08:48:45;;;;;;;1.77;0.95;;;11.50;99.90;;;;;;5096264;28;20386;-85
2022/06/03 08:51:45;;;;;;;1.10;0.80;;;11.50;99.90;;;;;;5089719;28;20381;-84
2022/06/03 08:54:45;;;;;;;1.27;0.82;;;11.50;99.90;;;;;;5070128;28;20451;-86
2022/06/03 08:57:29;;;;;;;1.10;0.87;;;11.40;99.90;;;;;;4986938;28;20829;-84
2022/06/03 09:00:25;;;;;;;1.17;1.00;;;11.40;99.90;;;;;;4987321;28;20381;-83
2022/06/03 09:03:09;;;;;;;1.17;0.80;;;11.40;99.90;;;;;;4970528;28;20381;-84
2022/06/03 09:05:58;;;;;;;3.38;0.90;;;11.40;99.90;;;;;;4986812;28;20761;-84
2022/06/03 09:08:40;;;;;;;2.38;1.13;;;11.40;99.90;;;;;;4986718;28;20389;-84
2022/06/03 09:11:18;;;;;;;2.60;1.20;;;11.30;99.90;;;;;;4986642;28;20385;-84
2022/06/03 09:14:04;;;;;;;2.45;1.10;;;11.30;99.90;;;;;;4986699;28;20377;-84
2022/06/03 09:16:33;;;;;;;1.80;1.20;;;11.40;99.90;;;;;;4970750;28;20388;-84
2022/06/03 09:19:31;;;;;;;1.83;1.17;;;11.30;99.90;;;;;;4986646;28;20381;-84
2022/06/03 09:22:06;;;;;;;2.53;1.20;;;11.20;99.90;;;;;;4984788;28;20393;-84
2022/06/03 09:24:37;;;;;;;2.15;1.10;;;11.10;99.90;;;;;;4989993;28;20897;-83
2022/06/03 09:27:10;;;;;;;2.00;1.00;;;11.10;99.90;;;;;;4990187;28;20385;-84
2022/06/03 09:29:38;;;;;;;1.75;1.00;;;11.10;99.90;;;;;;4989990;28;20495;-84
2022/06/03 09:32:08;;;;;;;2.75;1.40;;;11.10;99.90;;;;;;4990320;28;20784;-84
2022/06/03 09:34:51;;;;;;;2.10;1.00;;;11.00;99.90;;;;;;5071376;28;20377;-83
2022/06/03 09:37:41;;;;;;;2.58;2.10;;;10.90;99.90;;;;;;5091500;28;20364;-83
2022/06/03 09:40:17;;;;;;;6.60;4.63;;;10.80;99.90;;;;;;5091686;28;20864;-83
2022/06/03 09:42:59;;;;;;;4.00;3.60;;;10.80;99.90;;;;;;5090474;28;21309;-83
2022/06/03 09:45:27;;;;;;;3.83;2.47;;;10.80;99.90;;;;;;5091214;28;20453;-83
2022/06/03 09:47:56;;;;;;;3.58;2.35;;;10.90;99.90;;;;;;5091311;28;20368;-83
2022/06/03 09:50:25;;;;;;;2.83;2.35;;;10.90;99.90;;;;;;5091147;28;20400;-83
2022/06/03 09:53:06;;;;;;;3.22;2.08;;;10.90;99.90;;;;;;5091167;28;20376;-83
2022/06/03 09:55:43;;;;;;;2.75;1.60;;;10.80;99.90;;;;;;5091319;28;20390;-84
2022/06/03 09:58:16;;;;;;;1.65;1.30;;;11.10;99.90;;;;;;5091188;28;20440;-85
2022/06/03 10:00:55;;;;;;;2.45;1.45;;;11.10;99.90;;;;;;5072884;28;20376;-85
2022/06/03 10:03:24;;;;;;;1.38;1.23;;;11.10;99.90;;;;;;5091515;28;20389;-85
2022/06/03 10:05:57;;;;;;;2.20;1.20;;;11.00;99.90;;;;;;5090962;28;20433;-86
2022/06/03 10:12:48;;;;;;;2.65;1.00;;;11.00;99.90;;;;;;5091391;28;20368;-86
2022/06/03 10:14:04;;;;;;;1.50;1.00;;;11.00;99.90;;;;;;5091104;28;20758;-87
2022/06/03 10:16:32;;;;;;;1.35;0.90;;;11.00;99.90;;;;;;5090978;28;20380;-86
2022/06/03 10:18:59;;;;;;;1.77;0.90;;;11.00;99.90;;;;;;5090784;28;20376;-85
2022/06/03 10:21:30;;;;;;;1.17;0.80;;;11.00;99.90;;;;;;5090707;28;20702;-86
2022/06/03 10:24:01;;;;;;;1.35;0.80;;;11.00;99.90;;;;;;5090982;28;20369;-85
2022/06/03 10:26:28;;;;;;;0.80;0.70;;;10.90;99.90;;;;;;5090588;28;20920;-85
2022/06/03 10:29:06;;;;;;;2.40;0.80;;;11.00;99.90;;;;;;5091348;28;20394;-85
2022/06/03 10:31:35;;;;;;;1.27;0.80;;;10.90;99.90;;;;;;5090503;28;20881;-85
2022/06/03 10:34:09;;;;;;;1.10;0.70;;;10.90;99.90;;;;;;5089835;28;20376;-85
2022/06/03 10:36:40;;;;;;;0.90;0.63;;;10.80;99.90;;;;;;5090074;28;20419;-85
2022/06/03 10:39:09;;;;;;;1.63;0.70;;;10.80;99.90;;;;;;5091011;28;20379;-85
2022/06/03 10:41:41;;;;;;;1.30;0.70;;;10.80;99.90;;;;;;5090614;28;20447;-85
2022/06/03 10:44:17;;;;;;;1.60;0.70;;;10.80;99.90;;;;;;5090359;28;20391;-85
2022/06/03 10:46:53;;;;;;;1.08;0.70;;;10.70;99.90;;;;;;5090461;28;20870;-85
2022/06/03 10:49:22;;;;;;;1.35;0.90;;;10.70;99.90;;;;;;5090582;28;20485;-85
2022/06/03 11:02:56;;;;;;;1.35;0.90;;;10.80;99.90;;;;;;5090144;28;20394;-85
2022/06/03 11:05:31;;;;;;;2.05;1.05;;;10.80;99.90;;;;;;5089918;28;20461;-85
2022/06/03 11:08:10;;;;;;;1.10;0.90;;;10.70;99.90;;;;;;5089727;28;20831;-85
2022/06/03 11:10:42;;;;;;;1.23;0.90;;;10.60;99.90;;;;;;5089661;28;21041;-84
2022/06/03 11:13:12;;;;;;;1.67;1.08;;;10.60;99.90;;;;;;5071495;28;20741;-86
2022/06/03 11:15:42;;;;;;;1.40;1.30;;;10.60;99.90;;;;;;5089597;28;20852;-84
2022/06/03 11:18:38;;;;;;;1.80;1.40;;;10.60;99.90;;;;;;5089526;28;20379;-84
2022/06/03 11:21:29;;;;;;;1.70;1.60;;;10.60;99.90;;;;;;4988253;28;20480;-85
2022/06/03 11:24:00;;;;;;;2.50;1.90;;;10.60;99.90;;;;;;4988003;28;20380;-85
2022/06/03 11:26:37;;;;;;;2.38;1.80;;;10.60;99.90;;;;;;4987922;28;20377;-85
2022/06/03 11:29:21;;;;;;;1.67;1.50;;;10.60;99.90;;;;;;4987960;28;20431;-85
2022/06/03 11:31:53;;;;;;;2.00;1.40;;;10.50;99.90;;;;;;4988037;28;20459;-85
2022/06/03 11:34:38;;;;;;;2.33;1.20;;;10.50;99.90;;;;;;4972182;28;20785;-85
2022/06/03 11:37:09;;;;;;;2.83;2.58;;;10.50;99.90;;;;;;5007987;28;20894;-85
2022/06/03 11:40:13;;;;;;;2.72;2.10;;;10.40;99.90;;;;;;5007926;28;20371;-85
2022/06/03 11:43:04;;;;;;;2.63;1.55;;;10.40;99.90;;;;;;5003854;28;20391;-85
2022/06/03 11:45:59;;;;;;;2.00;1.60;;;10.40;99.90;;;;;;5009714;28;20371;-82
2022/06/03 11:48:41;;;;;;;2.60;1.80;;;10.40;99.90;;;;;;5007101;28;20457;-84
2022/06/03 11:51:11;;;;;;;3.05;1.80;;;10.40;99.90;;;;;;5007461;28;20387;-84
2022/06/03 11:53:50;;;;;;;3.50;1.60;;;10.40;99.90;;;;;;5007079;28;20437;-84
2022/06/03 11:56:21;;;;;;;1.95;1.38;;;10.30;99.90;;;;;;4992222;28;20391;-85
2022/06/03 11:59:09;;;;;;;1.70;1.40;;;10.30;99.90;;;;;;5088911;28;20432;-84
2022/06/03 12:01:50;;;;;;;3.67;1.63;;;10.20;99.90;;;;;;5089163;28;20367;-84
2022/06/03 12:04:52;;;;;;;8.60;7.80;;;10.20;99.90;;;;;;5088697;28;20360;-84
2022/06/03 12:07:31;;;;;;;4.53;4.13;;;10.20;99.90;;;;;;5007027;28;20859;-84
2022/06/03 12:10:05;;;;;;;3.83;3.50;;;10.50;99.90;;;;;;5006833;28;20418;-83
2022/06/03 12:15:34;;;;;;;2.58;2.38;;;10.20;99.90;;;;;;5007185;28;20466;-83
2022/06/03 12:18:16;;;;;;;2.28;1.90;;;10.20;99.90;;;;;;5006864;28;20855;-83
2022/06/03 12:20:48;;;;;;;3.80;2.00;;;10.20;99.90;;;;;;5006776;28;20384;-83
2022/06/03 12:23:15;;;;;;;1.90;1.70;;;10.10;99.90;;;;;;5006934;28;20778;-83
2022/06/03 12:25:53;;;;;;;2.30;1.60;;;10.10;99.90;;;;;;5007220;28;20387;-84
2022/06/03 12:28:23;;;;;;;2.00;1.60;;;10.10;99.90;;;;;;5007028;28;20375;-84
2022/06/03 12:30:55;;;;;;;2.42;2.20;;;10.10;99.90;;;;;;5006941;28;20418;-83
2022/06/03 12:33:40;;;;;;;3.95;2.88;;;10.10;99.90;;;;;;5006700;28;20450;-84
2022/06/03 12:36:29;;;;;;;3.70;2.90;;;10.10;99.90;;;;;;5006524;28;20438;-84
2022/06/03 12:39:19;;;;;;;6.05;4.80;;;10.00;99.90;;;;;;4929405;29;20382;-84
2022/06/03 12:41:46;;;;;;;5.10;4.25;;;10.00;99.90;;;;;;4854321;29;20400;-85
2022/06/03 12:44:34;;;;;;;17.60;15.00;;;10.00;99.90;;;;;;4922310;29;20468;-83
2022/06/03 12:47:19;;;;;;;7.70;6.18;;;9.90;99.90;;;;;;4948922;29;20384;-84
2022/06/03 12:49:49;;;;;;;6.07;5.47;;;9.90;99.90;;;;;;4948201;28;20467;-84
2022/06/03 12:52:22;;;;;;;6.85;6.00;;;9.90;99.90;;;;;;4948618;28;20886;-84
2022/06/03 12:54:59;;;;;;;5.82;5.25;;;9.90;99.90;;;;;;4948802;29;20520;-84
2022/06/03 12:57:51;;;;;;;5.78;4.50;;;9.90;99.90;;;;;;4948659;28;20418;-83
2022/06/03 13:00:36;;;;;;;4.82;4.32;;;9.90;99.90;;;;;;4951743;28;20387;-83
2022/06/03 13:03:07;;;;;;;4.60;3.60;;;10.00;99.90;;;;;;4951881;29;20403;-83
2022/06/03 13:05:50;;;;;;;4.78;3.10;;;10.00;99.90;;;;;;4952079;28;20795;-83
2022/06/03 13:08:29;;;;;;;3.70;3.40;;;9.90;99.90;;;;;;4952526;29;20899;-83
2022/06/03 13:10:57;;;;;;;4.88;3.60;;;10.00;99.90;;;;;;4952260;29;20753;-84
2022/06/03 13:13:36;;;;;;;4.50;4.10;;;9.90;99.90;;;;;;4951930;29;20403;-83
2022/06/03 13:16:21;;;;;;;4.73;4.20;;;10.00;99.90;;;;;;4982169;28;20398;-83
2022/06/03 13:18:54;;;;;;;4.00;3.47;;;10.00;99.90;;;;;;5040833;28;20742;-84
2022/06/03 13:21:28;;;;;;;4.03;3.60;;;9.90;99.90;;;;;;5092126;28;20471;-84
2022/06/03 13:24:16;;;;;;;3.60;2.75;;;9.90;99.90;;;;;;5092027;28;20418;-83
2022/06/03 13:26:43;;;;;;;3.20;2.80;;;9.90;99.90;;;;;;5091704;28;20421;-83
2022/06/03 13:29:13;;;;;;;4.68;2.78;;;9.80;99.90;;;;;;5091974;28;20483;-83
2022/06/03 13:32:00;;;;;;;2.40;1.90;;;9.80;99.90;;;;;;5091525;28;20369;-84
2022/06/03 13:34:41;;;;;;;2.53;2.20;;;9.80;99.90;;;;;;5091743;28;20369;-84
2022/06/03 13:37:22;;;;;;;2.80;2.47;;;9.70;99.90;;;;;;5091605;28;20379;-83
2022/06/03 13:39:55;;;;;;;3.95;2.67;;;9.70;99.90;;;;;;5092012;28;20434;-83
2022/06/03 13:45:22;;;;;;;5.40;3.00;;;9.70;99.90;;;;;;5029812;28;20456;-84
2022/06/03 13:47:55;;;;;;;4.45;2.97;;;9.60;99.90;;;;;;5029497;28;20481;-84
2022/06/03 13:50:35;;;;;;;3.28;2.78;;;9.80;99.90;;;;;;5029248;28;20502;-84
2022/06/03 13:53:07;;;;;;;4.05;2.70;;;9.80;99.90;;;;;;5029340;28;20373;-84
2022/06/03 13:55:44;;;;;;;3.55;2.67;;;9.80;99.90;;;;;;5029227;28;20484;-84
2022/06/03 13:58:21;;;;;;;3.65;2.80;;;9.90;99.90;;;;;;5029480;28;20391;-84
2022/06/03 14:00:54;;;;;;;4.17;2.53;;;9.90;99.90;;;;;;5029520;28;20373;-83
2022/06/03 14:03:33;;;;;;;4.97;2.72;;;9.90;99.90;;;;;;5029020;28;20861;-84
2022/06/03 14:06:37;;;;;;;3.00;2.67;;;9.90;99.90;;;;;;5028922;28;20381;-84
2022/06/03 14:09:22;;;;;;;3.38;2.67;;;9.90;99.90;;;;;;5028886;28;20714;-84
2022/06/03 14:11:57;;;;;;;3.83;2.80;;;9.90;99.90;;;;;;5028743;28;20889;-84
2022/06/03 14:14:35;;;;;;;3.63;2.78;;;9.90;99.90;;;;;;5028555;28;20396;-84
2022/06/03 14:17:31;;;;;;;3.30;2.90;;;9.80;99.90;;;;;;5028878;28;20472;-84
2022/06/03 14:20:20;;;;;;;3.83;2.60;;;9.80;99.90;;;;;;4989154;28;20434;-83
2022/06/03 14:23:02;;;;;;;2.72;2.50;;;9.70;99.90;;;;;;5021365;28;20374;-84
2022/06/03 14:25:35;;;;;;;2.80;2.45;;;9.70;99.90;;;;;;5029155;28;20369;-84
2022/06/03 14:28:13;;;;;;;4.07;2.53;;;9.60;99.90;;;;;;5028400;28;20397;-84
2022/06/03 14:30:50;;;;;;;3.10;2.78;;;9.60;99.90;;;;;;5028453;28;20405;-84
2022/06/03 14:33:20;;;;;;;3.10;2.80;;;9.50;99.90;;;;;;5028573;28;20380;-84
2022/06/03 14:36:03;;;;;;;3.00;2.60;;;9.50;99.90;;;;;;5028302;28;20806;-84
2022/06/03 14:39:05;;;;;;;5.60;5.00;;;9.50;99.90;;;;;;5028564;28;20369;-85